createdAt,value
2022-10-06T00:00:04.324Z,15.28
2022-10-06T00:02:35.457Z,15.34
2022-10-06T00:05:06.027Z,15.30
2022-10-06T00:07:34.877Z,15.37
2022-10-06T00:10:03.197Z,15.35
2022-10-06T00:12:39.044Z,15.35
2022-10-06T00:15:09.249Z,15.48
2022-10-06T00:17:37.138Z,15.37
2022-10-06T00:20:09.057Z,15.55
2022-10-06T00:22:39.999Z,15.62
2022-10-06T00:25:12.544Z,15.59
2022-10-06T00:27:44.424Z,15.47
2022-10-06T00:30:17.525Z,15.38
2022-10-06T00:32:53.081Z,15.36
2022-10-06T00:35:25.374Z,15.27
2022-10-06T00:37:53.381Z,15.13
2022-10-06T00:40:23.331Z,15.08
2022-10-06T00:42:57.458Z,15.04
2022-10-06T00:45:33.418Z,14.98
2022-10-06T00:48:08.474Z,15.05
2022-10-06T00:50:39.330Z,14.98
2022-10-06T00:53:08.641Z,14.98
2022-10-06T00:55:36.489Z,15.05
2022-10-06T00:58:06.528Z,14.97
2022-10-06T01:00:34.907Z,15.03
2022-10-06T01:03:12.044Z,15.01
2022-10-06T01:05:49.716Z,14.95
2022-10-06T01:08:21.128Z,14.97
2022-10-06T01:10:49.362Z,14.91
2022-10-06T01:13:19.153Z,14.96
2022-10-06T01:15:54.200Z,14.96
2022-10-06T01:18:27.142Z,14.99
2022-10-06T01:21:08.963Z,14.98
2022-10-06T01:23:41.539Z,15.07
2022-10-06T01:26:13.450Z,15.10
2022-10-06T01:28:41.452Z,15.12
2022-10-06T01:31:09.960Z,15.03
2022-10-06T01:33:37.833Z,14.96
2022-10-06T01:36:06.423Z,14.99
2022-10-06T01:38:36.451Z,14.93
2022-10-06T01:41:08.152Z,14.96
2022-10-06T01:43:36.843Z,14.97
2022-10-06T01:46:06.469Z,15.05
2022-10-06T01:48:36.921Z,14.99
2022-10-06T01:51:04.981Z,15.03
2022-10-06T01:53:35.200Z,15.07
2022-10-06T01:56:03.043Z,15.06
2022-10-06T01:58:33.207Z,15.03
2022-10-06T02:01:07.047Z,14.98
2022-10-06T02:03:37.961Z,14.89
2022-10-06T02:06:07.714Z,14.84
2022-10-06T02:08:36.914Z,14.73
2022-10-06T02:11:09.718Z,14.81
2022-10-06T02:13:42.962Z,14.82
2022-10-06T02:16:13.876Z,14.73
2022-10-06T02:18:43.286Z,14.79
2022-10-06T02:21:15.781Z,14.68
2022-10-06T02:23:45.165Z,14.58
2022-10-06T02:26:13.656Z,14.53
2022-10-06T02:28:44.685Z,14.59
2022-10-06T02:31:14.841Z,14.55
2022-10-06T02:33:44.724Z,14.59
2022-10-06T02:36:16.596Z,14.52
2022-10-06T02:38:44.794Z,14.57
2022-10-06T02:41:12.635Z,14.57
2022-10-06T02:43:40.830Z,14.55
2022-10-06T02:46:13.330Z,14.45
2022-10-06T02:48:46.915Z,14.46
2022-10-06T02:51:17.651Z,14.36
2022-10-06T02:53:48.513Z,14.41
2022-10-06T02:56:19.176Z,14.30
2022-10-06T02:58:50.151Z,14.32
2022-10-06T03:01:30.071Z,14.24
2022-10-06T03:04:01.268Z,14.26
2022-10-06T03:06:30.883Z,14.21
2022-10-06T03:09:10.771Z,14.20
2022-10-06T03:11:44.309Z,14.22
2022-10-06T03:14:28.370Z,14.18
2022-10-06T03:16:57.552Z,14.17
2022-10-06T03:19:27.957Z,14.15
2022-10-06T03:21:57.759Z,14.15
2022-10-06T03:24:34.982Z,14.15
2022-10-06T03:27:03.358Z,14.14
2022-10-06T03:29:31.270Z,14.21
2022-10-06T03:32:00.948Z,14.27
2022-10-06T03:34:29.867Z,14.19
2022-10-06T03:37:01.819Z,14.20
2022-10-06T03:39:30.129Z,14.02
2022-10-06T03:41:57.919Z,14.11
2022-10-06T03:44:26.756Z,14.10
2022-10-06T03:46:55.421Z,14.14
2022-10-06T03:49:31.113Z,14.06
2022-10-06T03:51:58.948Z,13.96
2022-10-06T03:54:31.568Z,13.94
2022-10-06T03:57:01.660Z,13.99
2022-10-06T03:59:34.041Z,13.88
2022-10-06T04:02:05.283Z,13.84
2022-10-06T04:04:39.573Z,13.87
2022-10-06T04:07:11.354Z,13.84
2022-10-06T04:09:40.359Z,13.77
2022-10-06T04:12:10.092Z,13.72
2022-10-06T04:14:39.702Z,13.68
2022-10-06T04:17:09.380Z,13.66
2022-10-06T04:19:41.917Z,13.63
2022-10-06T04:22:09.785Z,13.54
2022-10-06T04:24:38.119Z,13.58
2022-10-06T04:27:24.706Z,13.53
2022-10-06T04:30:12.815Z,13.61
2022-10-06T04:32:42.125Z,13.55
2022-10-06T04:35:12.961Z,13.52
2022-10-06T04:37:43.226Z,13.54
2022-10-06T04:40:12.543Z,13.51
2022-10-06T04:42:41.060Z,13.51
2022-10-06T04:45:13.210Z,13.50
2022-10-06T04:47:43.147Z,13.41
2022-10-06T04:50:12.599Z,13.46
2022-10-06T04:53:00.453Z,13.40
2022-10-06T04:55:28.317Z,13.41
2022-10-06T04:57:56.145Z,13.41
2022-10-06T05:00:25.180Z,13.39
2022-10-06T05:02:56.222Z,13.34
2022-10-06T05:05:25.480Z,13.43
2022-10-06T05:07:55.696Z,13.46
2022-10-06T05:10:23.696Z,13.41
2022-10-06T05:12:52.671Z,13.34
2022-10-06T05:15:25.265Z,13.33
2022-10-06T05:17:53.918Z,13.36
2022-10-06T05:20:23.130Z,13.31
2022-10-06T05:22:56.422Z,13.30
2022-10-06T05:25:25.142Z,13.30
2022-10-06T05:27:53.782Z,13.25
2022-10-06T05:30:21.729Z,13.26
2022-10-06T05:32:52.299Z,13.24
2022-10-06T05:35:21.584Z,13.27
2022-10-06T05:37:49.366Z,13.30
2022-10-06T05:40:19.063Z,13.28
2022-10-06T05:42:48.387Z,13.24
2022-10-06T05:45:18.869Z,13.25
2022-10-06T05:47:47.018Z,13.19
2022-10-06T05:50:15.712Z,13.15
2022-10-06T05:52:43.612Z,13.17
2022-10-06T05:55:11.465Z,13.13
2022-10-06T05:57:41.771Z,13.13
2022-10-06T06:00:11.915Z,13.19
2022-10-06T06:02:40.923Z,13.19
2022-10-06T06:05:10.714Z,13.14
2022-10-06T06:07:39.148Z,13.24
2022-10-06T06:10:09.908Z,13.29
2022-10-06T06:12:37.770Z,13.25
2022-10-06T06:15:51.026Z,13.25
2022-10-06T06:18:20.504Z,13.30
2022-10-06T06:20:56.568Z,13.23
2022-10-06T06:23:30.862Z,13.31
2022-10-06T06:26:02.510Z,13.31
2022-10-06T06:28:32.469Z,13.38
2022-10-06T06:31:08.042Z,13.36
2022-10-06T06:33:38.041Z,13.44
2022-10-06T06:36:13.822Z,13.41
2022-10-06T06:38:42.531Z,13.33
2022-10-06T06:41:15.797Z,13.41
2022-10-06T06:43:44.234Z,13.47
2022-10-06T06:49:12.246Z,13.52
2022-10-06T06:51:50.098Z,13.59
2022-10-06T06:54:20.618Z,13.65
2022-10-06T06:56:55.449Z,13.68
2022-10-06T06:59:25.155Z,13.71
2022-10-06T07:01:57.971Z,13.76
2022-10-06T07:04:32.752Z,13.84
2022-10-06T07:07:01.608Z,13.91
2022-10-06T07:09:32.413Z,13.98
2022-10-06T07:12:07.050Z,14.14
2022-10-06T07:14:35.228Z,14.21
2022-10-06T07:17:24.143Z,14.39
2022-10-06T07:20:10.243Z,14.48
2022-10-06T07:22:57.831Z,14.45
2022-10-06T07:25:27.587Z,14.51
2022-10-06T07:27:58.108Z,14.65
2022-10-06T07:30:30.900Z,14.67
2022-10-06T07:33:07.387Z,14.77
2022-10-06T07:35:35.244Z,14.73
2022-10-06T07:38:07.821Z,14.87
2022-10-06T07:40:46.301Z,14.93
2022-10-06T07:43:21.490Z,15.00
2022-10-06T07:45:51.241Z,15.01
2022-10-06T07:48:48.354Z,15.12
2022-10-06T07:51:19.486Z,15.31
2022-10-06T07:53:50.952Z,15.44
2022-10-06T07:56:31.646Z,15.33
2022-10-06T07:59:06.540Z,15.41
2022-10-06T08:01:34.944Z,15.32
2022-10-06T08:04:06.889Z,15.58
2022-10-06T08:06:35.218Z,15.51
2022-10-06T08:09:05.695Z,16.00
2022-10-06T08:11:33.880Z,16.06
2022-10-06T08:14:01.681Z,16.27
2022-10-06T08:16:30.269Z,16.29
2022-10-06T08:18:59.521Z,16.55
2022-10-06T08:21:31.775Z,16.64
2022-10-06T08:24:00.815Z,16.69
2022-10-06T08:26:33.286Z,16.77
2022-10-06T08:29:03.057Z,16.81
2022-10-06T08:31:32.365Z,16.99
2022-10-06T08:34:01.306Z,16.95
2022-10-06T08:36:32.442Z,16.97
2022-10-06T08:39:01.415Z,16.96
2022-10-06T08:41:39.917Z,16.62
2022-10-06T08:44:24.316Z,16.80
2022-10-06T08:46:57.739Z,16.97
2022-10-06T08:49:33.885Z,17.16
2022-10-06T08:52:23.750Z,17.29
2022-10-06T08:55:07.487Z,17.50
2022-10-06T08:57:44.648Z,17.56
2022-10-06T09:00:21.169Z,17.46
2022-10-06T09:02:51.829Z,17.01
2022-10-06T09:05:28.359Z,16.78
2022-10-06T09:08:25.271Z,16.90
2022-10-06T09:11:13.481Z,16.80
2022-10-06T09:13:53.186Z,16.66
2022-10-06T09:16:29.715Z,16.82
2022-10-06T09:19:09.895Z,16.84
2022-10-06T09:21:42.361Z,16.82
2022-10-06T09:24:16.544Z,16.91
2022-10-06T09:26:48.443Z,17.02
2022-10-06T09:29:17.118Z,17.00
2022-10-06T09:31:53.201Z,17.10
2022-10-06T09:34:30.964Z,17.15
2022-10-06T09:37:02.811Z,17.42
2022-10-06T09:39:38.798Z,17.51
2022-10-06T09:42:15.071Z,17.63
2022-10-06T09:44:54.104Z,17.88
2022-10-06T09:47:46.260Z,17.91
2022-10-06T09:50:23.483Z,17.97
2022-10-06T09:53:11.048Z,18.21
2022-10-06T09:55:52.098Z,18.61
2022-10-06T09:58:26.628Z,18.54
2022-10-06T10:01:00.070Z,18.83
2022-10-06T10:03:56.560Z,19.14
2022-10-06T10:06:32.521Z,19.34
2022-10-06T10:09:23.653Z,19.56
2022-10-06T10:12:30.702Z,19.40
2022-10-06T10:15:05.562Z,19.54
2022-10-06T10:17:43.745Z,19.89
2022-10-06T10:20:35.325Z,19.79
2022-10-06T10:23:18.518Z,19.75
2022-10-06T10:26:08.277Z,20.00
2022-10-06T10:29:01.051Z,20.65
2022-10-06T10:31:44.743Z,20.31
2022-10-06T10:34:38.201Z,19.94
2022-10-06T10:37:12.354Z,19.76
2022-10-06T10:39:48.210Z,19.29
2022-10-06T10:42:24.657Z,19.21
2022-10-06T10:45:00.199Z,19.63
2022-10-06T10:47:35.787Z,20.02
2022-10-06T10:50:19.850Z,20.52
2022-10-06T10:52:53.947Z,20.64
2022-10-06T10:55:30.056Z,20.89
2022-10-06T10:58:10.324Z,21.00
2022-10-06T11:00:48.143Z,21.20
2022-10-06T11:03:16.176Z,21.30
2022-10-06T11:06:20.661Z,21.28
2022-10-06T11:09:01.042Z,21.59
2022-10-06T11:11:52.349Z,22.01
2022-10-06T11:14:45.923Z,21.83
2022-10-06T11:17:40.167Z,21.48
2022-10-06T11:20:33.008Z,21.40
2022-10-06T11:23:40.516Z,21.37
2022-10-06T11:26:28.938Z,21.27
2022-10-06T11:29:15.467Z,21.53
2022-10-06T11:31:56.913Z,21.80
2022-10-06T11:34:26.175Z,21.55
2022-10-06T11:37:09.846Z,21.26
2022-10-06T11:39:51.165Z,21.34
2022-10-06T11:45:12.159Z,20.27
2022-10-06T11:48:10.803Z,20.69
2022-10-06T11:50:42.647Z,20.32
2022-10-06T11:53:41.149Z,20.18
2022-10-06T11:56:38.186Z,20.37
2022-10-06T11:59:25.475Z,20.19
2022-10-06T12:01:58.837Z,20.24
2022-10-06T12:04:26.916Z,19.77
2022-10-06T12:07:01.904Z,19.90
2022-10-06T12:09:46.152Z,19.85
2022-10-06T12:13:06.083Z,20.20
2022-10-06T12:19:24.858Z,20.63
2022-10-06T12:22:09.922Z,21.00
2022-10-06T12:24:45.956Z,21.24
2022-10-06T12:27:33.606Z,21.72
2022-10-06T12:30:17.245Z,21.97
2022-10-06T12:32:52.704Z,22.19
2022-10-06T12:35:31.326Z,21.73
2022-10-06T12:38:04.746Z,21.85
2022-10-06T12:40:52.458Z,21.63
2022-10-06T12:43:29.605Z,21.15
2022-10-06T12:46:00.458Z,20.93
2022-10-06T12:48:38.154Z,21.14
2022-10-06T12:51:30.386Z,20.74
2022-10-06T12:54:11.447Z,20.26
2022-10-06T12:56:41.902Z,20.02
2022-10-06T12:59:25.343Z,19.83
2022-10-06T13:01:57.524Z,19.70
2022-10-06T13:04:40.462Z,19.42
2022-10-06T13:07:18.822Z,19.24
2022-10-06T13:09:52.210Z,19.31
2022-10-06T13:12:32.332Z,19.54
2022-10-06T13:15:14.860Z,19.95
2022-10-06T13:17:48.244Z,19.98
2022-10-06T13:20:35.548Z,20.03
2022-10-06T13:23:20.070Z,20.57
2022-10-06T13:25:55.592Z,20.87
2022-10-06T13:28:31.147Z,21.19
2022-10-06T13:33:39.556Z,21.42
2022-10-06T13:36:08.914Z,21.60
2022-10-06T13:38:39.182Z,21.91
2022-10-06T13:41:24.524Z,22.65
2022-10-06T13:43:58.082Z,22.91
2022-10-06T13:46:29.799Z,23.28
2022-10-06T13:49:03.399Z,23.25
2022-10-06T13:51:34.133Z,23.38
2022-10-06T13:54:22.825Z,23.62
2022-10-06T13:56:51.979Z,24.24
2022-10-06T13:59:35.541Z,24.51
2022-10-06T14:02:24.076Z,24.30
2022-10-06T14:05:29.325Z,24.22
2022-10-06T14:08:01.254Z,23.67
2022-10-06T14:10:47.025Z,23.67
2022-10-06T14:13:19.917Z,23.36
2022-10-06T14:15:50.801Z,23.36
2022-10-06T14:18:24.945Z,23.11
2022-10-06T14:20:54.771Z,23.31
2022-10-06T14:23:49.197Z,23.27
2022-10-06T14:26:22.916Z,23.39
2022-10-06T14:28:53.843Z,23.09
2022-10-06T14:31:24.905Z,23.00
2022-10-06T14:33:54.795Z,22.24
2022-10-06T14:36:27.249Z,21.82
2022-10-06T14:38:57.294Z,21.53
2022-10-06T14:41:28.582Z,21.30
2022-10-06T14:44:03.402Z,21.53
2022-10-06T14:46:32.217Z,21.58
2022-10-06T14:49:00.749Z,21.62
2022-10-06T14:51:30.972Z,22.04
2022-10-06T14:54:01.255Z,22.29
2022-10-06T14:56:33.104Z,22.62
2022-10-06T14:59:06.681Z,22.93
2022-10-06T15:01:37.395Z,22.66
2022-10-06T15:04:08.353Z,22.45
2022-10-06T15:06:55.062Z,22.45
2022-10-06T15:09:23.756Z,22.53
2022-10-06T15:11:52.251Z,21.94
2022-10-06T15:14:22.983Z,21.86
2022-10-06T15:16:53.244Z,21.99
2022-10-06T15:19:24.646Z,22.03
2022-10-06T15:21:53.256Z,21.67
2022-10-06T15:24:21.658Z,21.67
2022-10-06T15:27:07.903Z,21.11
2022-10-06T15:29:37.154Z,20.85
2022-10-06T15:32:07.387Z,20.77
2022-10-06T15:34:37.501Z,20.71
2022-10-06T15:37:06.260Z,20.80
2022-10-06T15:39:37.408Z,20.83
2022-10-06T15:42:06.157Z,21.02
2022-10-06T15:44:34.793Z,20.53
2022-10-06T15:47:06.877Z,20.52
2022-10-06T15:49:40.181Z,20.19
2022-10-06T15:52:13.549Z,19.87
2022-10-06T15:54:42.051Z,19.69
2022-10-06T15:57:17.815Z,19.32
2022-10-06T15:59:55.433Z,19.12
2022-10-06T16:02:27.513Z,19.25
2022-10-06T16:05:02.372Z,19.18
2022-10-06T16:07:32.702Z,19.08
2022-10-06T16:10:00.972Z,18.94
2022-10-06T16:12:28.815Z,18.90
2022-10-06T16:14:58.190Z,18.85
2022-10-06T16:17:27.942Z,18.82
2022-10-06T16:19:55.835Z,18.59
2022-10-06T16:22:23.719Z,18.53
2022-10-06T16:24:52.668Z,18.55
2022-10-06T16:27:20.577Z,18.53
2022-10-06T16:29:48.329Z,18.49
2022-10-06T16:32:19.818Z,18.43
2022-10-06T16:34:50.572Z,18.30
2022-10-06T16:37:18.418Z,18.02
2022-10-06T16:39:47.248Z,17.85
2022-10-06T16:42:16.730Z,17.82
2022-10-06T16:44:47.132Z,17.67
2022-10-06T16:47:15.027Z,17.53
2022-10-06T16:49:42.941Z,17.41
2022-10-06T16:52:14.248Z,17.19
2022-10-06T16:54:42.062Z,17.07
2022-10-06T16:57:10.406Z,16.99
2022-10-06T16:59:43.194Z,16.80
2022-10-06T17:02:14.819Z,16.69
2022-10-06T17:04:43.538Z,16.64
2022-10-06T17:07:16.345Z,16.58
2022-10-06T17:10:01.642Z,16.42
2022-10-06T17:12:32.399Z,16.34
2022-10-06T17:15:00.788Z,16.24
2022-10-06T17:17:28.548Z,16.10
2022-10-06T17:19:56.323Z,15.98
2022-10-06T17:22:26.371Z,15.83
2022-10-06T17:24:54.509Z,15.74
2022-10-06T17:27:23.639Z,15.61
2022-10-06T17:29:51.707Z,15.42
2022-10-06T17:32:19.536Z,15.37
2022-10-06T17:34:47.912Z,15.28
2022-10-06T17:37:17.256Z,15.17
2022-10-06T17:39:47.673Z,15.05
2022-10-06T17:42:17.131Z,14.97
2022-10-06T17:44:45.443Z,14.90
2022-10-06T17:47:14.061Z,14.78
2022-10-06T17:49:43.203Z,14.70
2022-10-06T17:52:12.560Z,14.63
2022-10-06T17:54:44.583Z,14.53
2022-10-06T17:57:13.965Z,14.39
2022-10-06T17:59:47.014Z,14.27
2022-10-06T18:02:15.927Z,14.18
2022-10-06T18:04:48.233Z,14.08
2022-10-06T18:07:19.867Z,14.01
2022-10-06T18:10:07.634Z,13.92
2022-10-06T18:12:41.440Z,13.85
2022-10-06T18:15:12.589Z,13.75
2022-10-06T18:17:42.519Z,13.73
2022-10-06T18:20:11.450Z,13.63
2022-10-06T18:22:40.418Z,13.53
2022-10-06T18:25:16.489Z,13.51
2022-10-06T18:27:47.695Z,13.50
2022-10-06T18:30:15.620Z,13.44
2022-10-06T18:38:26.950Z,13.14
2022-10-06T18:41:01.044Z,13.08
2022-10-06T18:43:36.155Z,12.98
2022-10-06T18:46:25.925Z,12.97
2022-10-06T18:48:56.524Z,12.95
2022-10-06T18:51:34.501Z,12.88
2022-10-06T18:54:05.484Z,12.82
2022-10-06T18:56:38.032Z,12.84
2022-10-06T18:59:14.023Z,12.83
2022-10-06T19:01:45.096Z,12.80
2022-10-06T19:04:19.459Z,12.74
2022-10-06T19:06:52.408Z,12.69
2022-10-06T19:09:25.257Z,12.64
2022-10-06T19:11:55.918Z,12.48
2022-10-06T19:14:35.751Z,12.39
2022-10-06T19:17:06.961Z,12.35
2022-10-06T19:19:35.778Z,12.19
2022-10-06T19:22:05.979Z,12.10
2022-10-06T19:24:38.040Z,12.14
2022-10-06T19:27:13.098Z,12.16
2022-10-06T19:29:46.795Z,12.04
2022-10-06T19:32:21.050Z,11.95
2022-10-06T19:34:51.367Z,11.88
2022-10-06T19:37:20.327Z,11.80
2022-10-06T19:39:50.079Z,11.69
2022-10-06T19:42:38.833Z,11.63
2022-10-06T19:45:12.360Z,11.62
2022-10-06T19:47:40.748Z,11.61
2022-10-06T19:50:12.793Z,11.59
2022-10-06T19:52:41.422Z,11.65
2022-10-06T19:55:10.136Z,11.69
2022-10-06T19:57:38.183Z,11.71
2022-10-06T20:00:11.099Z,11.69
2022-10-06T20:02:44.736Z,11.61
2022-10-06T20:05:14.787Z,11.46
2022-10-06T20:07:46.382Z,11.35
2022-10-06T20:10:18.494Z,11.37
2022-10-06T20:12:48.370Z,11.31
2022-10-06T20:15:19.654Z,11.33
2022-10-06T20:17:47.789Z,11.33
2022-10-06T20:20:17.042Z,11.32
2022-10-06T20:22:46.267Z,11.31
2022-10-06T20:25:19.594Z,11.32
2022-10-06T20:27:50.368Z,11.26
2022-10-06T20:30:25.095Z,11.23
2022-10-06T20:32:58.614Z,11.26
2022-10-06T20:35:29.349Z,11.23
2022-10-06T20:38:05.881Z,11.18
2022-10-06T20:40:43.206Z,11.11
2022-10-06T20:43:12.068Z,11.08
2022-10-06T20:45:50.368Z,11.06
2022-10-06T20:48:20.142Z,11.03
2022-10-06T20:50:49.787Z,11.02
2022-10-06T20:53:17.864Z,11.01
2022-10-06T20:55:52.476Z,10.93
2022-10-06T20:58:21.481Z,10.93
2022-10-06T21:00:51.836Z,10.94
2022-10-06T21:03:21.893Z,10.93
2022-10-06T21:05:52.793Z,10.93
2022-10-06T21:08:20.983Z,10.89
2022-10-06T21:10:56.095Z,10.88
2022-10-06T21:13:30.357Z,10.84
2022-10-06T21:16:00.347Z,10.82
2022-10-06T21:18:28.945Z,10.75
2022-10-06T21:21:00.529Z,10.68
2022-10-06T21:23:30.665Z,10.56
2022-10-06T21:26:01.983Z,10.43
2022-10-06T21:28:33.402Z,10.34
2022-10-06T21:31:13.155Z,10.33
2022-10-06T21:33:45.169Z,10.43
2022-10-06T21:36:16.941Z,10.45
2022-10-06T21:38:49.595Z,10.46
2022-10-06T21:41:29.463Z,10.45
2022-10-06T21:44:01.478Z,10.41
2022-10-06T21:46:34.518Z,10.34
2022-10-06T21:49:06.078Z,10.21
2022-10-06T21:51:34.298Z,10.14
2022-10-06T21:54:03.419Z,10.19
2022-10-06T21:56:34.196Z,10.23
2022-10-06T21:59:04.533Z,10.22
2022-10-06T22:01:36.452Z,10.11
2022-10-06T22:04:05.510Z,10.15
2022-10-06T22:06:35.961Z,10.13
2022-10-06T22:09:07.328Z,10.13
2022-10-06T22:11:39.697Z,10.07
2022-10-06T22:14:13.882Z,9.98
2022-10-06T22:16:44.532Z,9.94
2022-10-06T22:19:14.573Z,9.99
2022-10-06T22:21:45.106Z,10.04
2022-10-06T22:24:16.250Z,10.04
2022-10-06T22:26:45.377Z,10.04
2022-10-06T22:29:16.436Z,10.05
2022-10-06T22:31:47.942Z,10.06
2022-10-06T22:34:19.123Z,10.04
2022-10-06T22:36:47.458Z,10.03
2022-10-06T22:39:16.037Z,9.99
2022-10-06T22:41:44.548Z,9.95
2022-10-06T22:44:12.308Z,9.94
2022-10-06T22:46:41.136Z,9.91
2022-10-06T22:49:10.569Z,9.94
2022-10-06T22:51:38.583Z,9.97
2022-10-06T22:54:07.503Z,9.86
2022-10-06T22:56:35.302Z,9.79
2022-10-06T22:59:03.795Z,9.87
2022-10-06T23:01:33.164Z,9.88
2022-10-06T23:04:01.260Z,9.88
2022-10-06T23:06:31.514Z,9.79
2022-10-06T23:08:59.833Z,9.79
2022-10-06T23:11:28.389Z,9.81
2022-10-06T23:13:56.727Z,9.88
2022-10-06T23:16:25.360Z,9.90
2022-10-06T23:18:53.228Z,9.88
2022-10-06T23:21:24.492Z,9.87
2022-10-06T23:23:55.819Z,9.87
2022-10-06T23:26:24.653Z,9.84
2022-10-06T23:28:56.074Z,9.76
2022-10-06T23:31:25.059Z,9.76
2022-10-06T23:33:54.584Z,9.63
2022-10-06T23:36:22.420Z,9.61
2022-10-06T23:38:50.393Z,9.52
2022-10-06T23:41:20.143Z,9.46
2022-10-06T23:43:48.108Z,9.48
2022-10-06T23:46:16.190Z,9.42
2022-10-06T23:48:48.418Z,9.51
2022-10-06T23:51:17.098Z,9.56
2022-10-06T23:53:45.573Z,9.62
2022-10-06T23:56:14.809Z,9.61
2022-10-06T23:58:45.033Z,9.64
